Time;durP1;ratioP1;P1;durP2;ratioP2;P2;SDS_P1;SDS_P2;PMS_P1;PMS_P2;Temp;Humidity;BMP_temperature;BMP_pressure;BME280_temperature;BME280_humidity;BME280_pressure;Samples;Min_cycle;Max_cycle;Signal;HPM_P1;HPM_P2
2023/12/01 00:00:22;;;;;;;;;;;;;;;;;;5130661;27;19927;-70
2023/12/01 00:02:48;;;;;;;;;;;;;;;;;;5131631;27;19934;-71
2023/12/01 00:05:14;;;;;;;;;;;;;;;;;;5130305;27;19920;-70
2023/12/01 00:07:40;;;;;;;;;;;;;;;;;;5128972;27;20013;-71
2023/12/01 00:10:06;;;;;;;;;;;;;;;;;;5126223;27;19919;-70
2023/12/01 00:12:32;;;;;;;;;;;;;;;;;;5131883;27;20279;-70
2023/12/01 00:14:58;;;;;;;;;;;;;;;;;;5126923;27;19923;-70
2023/12/01 00:17:24;;;;;;;;;;;;;;;;;;5125834;27;20368;-70
2023/12/01 00:19:50;;;;;;;;;;;;;;;;;;5131946;27;19934;-71
2023/12/01 00:22:15;;;;;;;;;;;;;;;;;;5123441;27;19930;-70
2023/12/01 00:24:41;;;;;;;;;;;;;;;;;;5127156;27;19936;-70
2023/12/01 00:27:07;;;;;;;;;;;;;;;;;;5131106;27;19919;-70
2023/12/01 00:29:33;;;;;;;;;;;;;;;;;;5125438;27;19919;-70
2023/12/01 00:31:59;;;;;;;;;;;;;;;;;;5125229;27;19977;-71
2023/12/01 00:34:25;;;;;;;;;;;;;;;;;;5130806;27;22275;-71
2023/12/01 00:36:51;;;;;;;;;;;;;;;;;;5128387;27;19919;-70
2023/12/01 00:39:17;;;;;;;;;;;;;;;;;;5125077;27;19924;-71
2023/12/01 00:41:43;;;;;;;;;;;;;;;;;;5120784;27;19934;-71
2023/12/01 00:44:09;;;;;;;;;;;;;;;;;;5113695;27;19924;-71
2023/12/01 00:46:34;;;;;;;;;;;;;;;;;;5130471;27;19926;-71
2023/12/01 00:49:00;;;;;;;;;;;;;;;;;;5127821;27;19927;-71
2023/12/01 00:51:26;;;;;;;;;;;;;;;;;;5130724;27;19930;-70
2023/12/01 00:53:52;;;;;;;;;;;;;;;;;;5126855;27;19932;-70
2023/12/01 00:56:18;;;;;;;;;;;;;;;;;;5123891;27;19927;-70
2023/12/01 00:58:44;;;;;;;;;;;;;;;;;;5129815;27;19988;-71
2023/12/01 01:01:10;;;;;;;;;;;;;;;;;;5126901;27;20376;-71
2023/12/01 01:03:36;;;;;;;;;;;;;;;;;;5121325;27;19929;-70
2023/12/01 01:06:02;;;;;;;;;;;;;;;;;;5126988;27;20007;-71
2023/12/01 01:08:28;;;;;;;;;;;;;;;;;;5125119;27;19920;-70
2023/12/01 01:10:54;;;;;;;;;;;;;;;;;;5124982;27;20292;-70
2023/12/01 01:13:20;;;;;;;;;;;;;;;;;;5128228;27;20449;-70
2023/12/01 01:15:46;;;;;;;;;;;;;;;;;;5132723;27;19926;-70
2023/12/01 01:18:11;;;;;;;;;;;;;;;;;;5137593;27;19962;-71
2023/12/01 01:20:37;;;;;;;;;;;;;;;;;;5125434;27;20380;-70
2023/12/01 01:23:03;;;;;;;;;;;;;;;;;;5125933;27;19932;-70
2023/12/01 01:25:30;;;;;;;;;;;;;;;;;;5126603;27;20002;-70
2023/12/01 01:27:56;;;;;;;;;;;;;;;;;;5126824;27;20034;-71
2023/12/01 01:30:22;;;;;;;;;;;;;;;;;;5129739;27;19996;-71
2023/12/01 01:32:48;;;;;;;;;;;;;;;;;;5128683;27;19923;-71
2023/12/01 01:35:14;;;;;;;;;;;;;;;;;;5129578;27;19923;-70
2023/12/01 01:37:40;;;;;;;;;;;;;;;;;;5110158;27;19930;-70
2023/12/01 01:40:06;;;;;;;;;;;;;;;;;;5116113;27;19953;-70
2023/12/01 01:42:31;;;;;;;;;;;;;;;;;;5104421;27;20339;-70
2023/12/01 01:44:57;;;;;;;;;;;;;;;;;;5130309;27;19939;-70
2023/12/01 01:47:23;;;;;;;;;;;;;;;;;;5122523;27;19924;-70
2023/12/01 01:49:49;;;;;;;;;;;;;;;;;;5121753;27;19954;-70
2023/12/01 01:52:15;;;;;;;;;;;;;;;;;;5132793;27;19926;-69
2023/12/01 01:54:41;;;;;;;;;;;;;;;;;;5127000;27;19923;-70
2023/12/01 01:57:07;;;;;;;;;;;;;;;;;;5125858;27;19923;-70
2023/12/01 01:59:33;;;;;;;;;;;;;;;;;;5127011;27;20388;-70
2023/12/01 02:01:59;;;;;;;;;;;;;;;;;;5126927;27;20010;-70
2023/12/01 02:04:25;;;;;;;;;;;;;;;;;;5126550;27;19928;-70
2023/12/01 02:06:51;;;;;;;;;;;;;;;;;;5111434;27;19927;-70
2023/12/01 02:09:17;;;;;;;;;;;;;;;;;;5122118;27;19924;-70
2023/12/01 02:11:42;;;;;;;;;;;;;;;;;;5127799;27;19923;-69
2023/12/01 02:14:08;;;;;;;;;;;;;;;;;;5122674;27;20035;-70
2023/12/01 02:16:34;;;;;;;;;;;;;;;;;;5127695;27;20332;-70
2023/12/01 02:19:00;;;;;;;;;;;;;;;;;;5130396;27;20022;-69
2023/12/01 02:21:26;;;;;;;;;;;;;;;;;;5124262;27;19920;-69
2023/12/01 02:23:52;;;;;;;;;;;;;;;;;;5124511;27;20019;-70
2023/12/01 02:26:18;;;;;;;;;;;;;;;;;;5124420;27;20374;-70
2023/12/01 02:28:44;;;;;;;;;;;;;;;;;;5128633;27;19972;-70
2023/12/01 02:31:10;;;;;;;;;;;;;;;;;;5109730;27;19919;-70
2023/12/01 02:33:36;;;;;;;;;;;;;;;;;;5119415;27;19924;-70
2023/12/01 02:36:04;;;;;;;;;;;;;;;;;;5129856;27;19965;-70
2023/12/01 02:38:30;;;;;;;;;;;;;;;;;;5128827;27;20364;-70
2023/12/01 02:40:56;;;;;;;;;;;;;;;;;;5126811;27;19924;-71
2023/12/01 02:43:22;;;;;;;;;;;;;;;;;;5130680;27;19932;-70
2023/12/01 02:45:48;;;;;;;;;;;;;;;;;;5125162;27;20288;-70
2023/12/01 02:48:14;;;;;;;;;;;;;;;;;;5121768;27;19973;-70
2023/12/01 02:50:40;;;;;;;;;;;;;;;;;;5120624;27;19920;-70
2023/12/01 02:53:06;;;;;;;;;;;;;;;;;;5119632;27;19926;-69
2023/12/01 02:55:32;;;;;;;;;;;;;;;;;;5122484;27;19928;-69
2023/12/01 02:57:58;;;;;;;;;;;;;;;;;;5122412;27;20360;-69
2023/12/01 03:00:24;;;;;;;;;;;;;;;;;;5119124;27;19927;-70
2023/12/01 03:02:50;;;;;;;;;;;;;;;;;;5128490;27;19927;-69
2023/12/01 03:05:16;;;;;;;;;;;;;;;;;;5122625;27;19920;-70
2023/12/01 03:07:42;;;;;;;;;;;;;;;;;;5123891;27;19926;-69
2023/12/01 03:10:08;;;;;;;;;;;;;;;;;;5120742;27;20662;-69
2023/12/01 03:12:34;;;;;;;;;;;;;;;;;;5129925;27;19965;-69
2023/12/01 03:15:00;;;;;;;;;;;;;;;;;;5123566;27;19955;-68
2023/12/01 03:17:25;;;;;;;;;;;;;;;;;;5130521;27;19962;-69
2023/12/01 03:19:52;;;;;;;;;;;;;;;;;;5127614;27;19959;-69
2023/12/01 03:22:17;;;;;;;;;;;;;;;;;;5125286;27;19923;-69
2023/12/01 03:24:45;;;;;;;;;;;;;;;;;;5130943;27;20598;-69
2023/12/01 03:27:11;;;;;;;;;;;;;;;;;;5128873;27;20428;-69
2023/12/01 03:29:37;;;;;;;;;;;;;;;;;;5123027;27;20037;-69
2023/12/01 03:32:04;;;;;;;;;;;;;;;;;;5128057;27;19939;-69
2023/12/01 03:34:30;;;;;;;;;;;;;;;;;;5123610;27;19926;-69
2023/12/01 03:36:56;;;;;;;;;;;;;;;;;;5127073;27;19928;-69
2023/12/01 03:39:22;;;;;;;;;;;;;;;;;;5124198;27;19920;-68
2023/12/01 03:41:48;;;;;;;;;;;;;;;;;;5116048;27;19927;-69
2023/12/01 03:44:13;;;;;;;;;;;;;;;;;;5129269;28;19923;-68
2023/12/01 03:46:39;;;;;;;;;;;;;;;;;;5125350;27;20641;-69
2023/12/01 03:49:05;;;;;;;;;;;;;;;;;;5115075;27;20412;-69
2023/12/01 03:51:31;;;;;;;;;;;;;;;;;;5129487;27;19924;-69
2023/12/01 03:53:57;;;;;;;;;;;;;;;;;;5132633;27;19920;-69
2023/12/01 03:56:23;;;;;;;;;;;;;;;;;;5127484;27;19923;-69
2023/12/01 03:58:49;;;;;;;;;;;;;;;;;;5133890;27;19949;-69
2023/12/01 04:01:15;;;;;;;;;;;;;;;;;;5128215;27;19923;-66
2023/12/01 04:03:41;;;;;;;;;;;;;;;;;;5127071;27;19923;-67
2023/12/01 04:06:07;;;;;;;;;;;;;;;;;;5133993;27;20377;-67
2023/12/01 04:08:33;;;;;;;;;;;;;;;;;;5130601;27;19923;-67
2023/12/01 04:10:59;;;;;;;;;;;;;;;;;;5104127;22;19932;-65
2023/12/01 04:13:25;;;;;;;;;;;;;;;;;;5074075;28;19970;-65
2023/12/01 04:15:51;;;;;;;;;;;;;;;;;;5070570;28;19927;-65
2023/12/01 04:18:17;;;;;;;;;;;;;;;;;;5073086;28;19924;-66
2023/12/01 04:20:43;;;;;;;;;;;;;;;;;;5068850;28;20622;-66
2023/12/01 04:23:10;;;;;;;;;;;;;;;;;;5072358;28;19924;-64
2023/12/01 04:25:36;;;;;;;;;;;;;;;;;;5069734;28;19924;-64
2023/12/01 04:28:02;;;;;;;;;;;;;;;;;;5066672;28;19920;-64
2023/12/01 04:30:28;;;;;;;;;;;;;;;;;;5071651;28;19938;-65
2023/12/01 04:32:54;;;;;;;;;;;;;;;;;;5072600;28;20505;-65
2023/12/01 04:35:20;;;;;;;;;;;;;;;;;;5069016;28;19921;-65
2023/12/01 04:37:46;;;;;;;;;;;;;;;;;;5065093;28;19977;-65
2023/12/01 04:40:15;;;;;;;;;;;;;;;;;;5072842;28;19964;-65
2023/12/01 04:42:41;;;;;;;;;;;;;;;;;;5068931;28;19928;-65
2023/12/01 04:45:11;;;;;;;;;;;;;;;;;;5070005;28;20019;-65
2023/12/01 04:47:37;;;;;;;;;;;;;;;;;;5071854;28;20250;-65
2023/12/01 04:50:03;;;;;;;;;;;;;;;;;;5071155;28;19969;-65
2023/12/01 04:52:29;;;;;;;;;;;;;;;;;;5072103;28;19946;-64
2023/12/01 04:54:55;;;;;;;;;;;;;;;;;;5074163;28;19932;-64
2023/12/01 04:57:21;;;;;;;;;;;;;;;;;;5066505;28;19986;-65
2023/12/01 04:59:47;;;;;;;;;;;;;;;;;;5065387;28;19920;-64
2023/12/01 05:02:13;;;;;;;;;;;;;;;;;;5068985;28;19921;-64
2023/12/01 05:04:39;;;;;;;;;;;;;;;;;;5076207;28;19932;-64
2023/12/01 05:07:04;;;;;;;;;;;;;;;;;;5071064;28;19928;-64
2023/12/01 05:09:30;;;;;;;;;;;;;;;;;;5068138;28;19927;-65
2023/12/01 05:11:56;;;;;;;;;;;;;;;;;;5072180;28;20281;-64
2023/12/01 05:14:22;;;;;;;;;;;;;;;;;;5066677;28;19932;-63
2023/12/01 05:16:49;;;;;;;;;;;;;;;;;;5072918;28;19924;-64
2023/12/01 05:19:15;;;;;;;;;;;;;;;;;;5072103;28;20366;-64
2023/12/01 05:21:41;;;;;;;;;;;;;;;;;;5062861;28;19920;-65
2023/12/01 05:24:06;;;;;;;;;;;;;;;;;;5058373;28;19929;-64
2023/12/01 05:26:34;;;;;;;;;;;;;;;;;;5061512;28;19925;-64
2023/12/01 05:29:00;;;;;;;;;;;;;;;;;;5065068;28;20401;-63
2023/12/01 05:31:26;;;;;;;;;;;;;;;;;;5068459;28;19920;-64
2023/12/01 05:33:52;;;;;;;;;;;;;;;;;;5061413;28;19921;-64
2023/12/01 05:36:18;;;;;;;;;;;;;;;;;;5066714;28;19930;-64
2023/12/01 05:38:44;;;;;;;;;;;;;;;;;;5071302;28;19987;-64
2023/12/01 05:41:10;;;;;;;;;;;;;;;;;;5062776;28;20461;-64
2023/12/01 05:43:39;;;;;;;;;;;;;;;;;;5070648;28;20016;-64
2023/12/01 05:46:06;;;;;;;;;;;;;;;;;;5070646;28;20017;-65
2023/12/01 05:48:33;;;;;;;;;;;;;;;;;;5071163;28;20302;-64
2023/12/01 05:50:59;;;;;;;;;;;;;;;;;;5071817;28;19929;-64
2023/12/01 05:53:25;;;;;;;;;;;;;;;;;;5062606;28;19926;-64
2023/12/01 05:55:51;;;;;;;;;;;;;;;;;;5066672;28;19931;-65
2023/12/01 05:58:17;;;;;;;;;;;;;;;;;;5065563;28;19950;-65
2023/12/01 06:00:43;;;;;;;;;;;;;;;;;;5071614;28;19929;-64
2023/12/01 06:03:09;;;;;;;;;;;;;;;;;;5071331;28;20015;-64
2023/12/01 06:05:35;;;;;;;;;;;;;;;;;;5068250;28;20066;-63
2023/12/01 06:08:01;;;;;;;;;;;;;;;;;;5069934;28;19920;-64
2023/12/01 06:10:27;;;;;;;;;;;;;;;;;;5070881;28;20341;-64
2023/12/01 06:12:53;;;;;;;;;;;;;;;;;;5051113;28;19931;-64
2023/12/01 06:15:19;;;;;;;;;;;;;;;;;;5069434;28;19924;-64
2023/12/01 06:17:45;;;;;;;;;;;;;;;;;;5071617;28;19928;-64
2023/12/01 06:20:17;;;;;;;;;;;;;;;;;;5070296;28;20385;-64
2023/12/01 06:22:43;;;;;;;;;;;;;;;;;;5063324;28;20418;-64
2023/12/01 06:25:09;;;;;;;;;;;;;;;;;;5062791;28;20019;-64
2023/12/01 06:27:34;;;;;;;;;;;;;;;;;;5067282;28;19966;-64
2023/12/01 06:30:01;;;;;;;;;;;;;;;;;;5065820;28;20013;-63
2023/12/01 06:32:27;;;;;;;;;;;;;;;;;;5060654;28;19990;-63
2023/12/01 06:34:54;;;;;;;;;;;;;;;;;;5066821;28;20372;-63
2023/12/01 06:37:20;;;;;;;;;;;;;;;;;;5066755;28;19920;-64
2023/12/01 06:39:46;;;;;;;;;;;;;;;;;;5070615;28;19931;-64
2023/12/01 06:42:12;;;;;;;;;;;;;;;;;;5063045;28;19928;-63
2023/12/01 06:44:38;;;;;;;;;;;;;;;;;;5070614;28;19977;-64
2023/12/01 06:47:04;;;;;;;;;;;;;;;;;;5065368;28;20313;-63
2023/12/01 06:49:29;;;;;;;;;;;;;;;;;;5065412;28;20332;-64
2023/12/01 06:51:58;;;;;;;;;;;;;;;;;;5071052;28;19920;-63
2023/12/01 06:54:27;;;;;;;;;;;;;;;;;;5070411;28;20273;-63
2023/12/01 06:56:53;;;;;;;;;;;;;;;;;;5070271;28;20110;-64
2023/12/01 06:59:21;;;;;;;;;;;;;;;;;;5066452;28;20039;-64
2023/12/01 07:01:47;;;;;;;;;;;;;;;;;;5066113;28;19924;-64
2023/12/01 07:04:14;;;;;;;;;;;;;;;;;;5073516;28;20267;-64
2023/12/01 07:06:45;;;;;;;;;;;;;;;;;;5047005;28;19947;-65
2023/12/01 07:09:17;;;;;;;;;;;;;;;;;;5070568;28;19928;-63
2023/12/01 07:11:42;;;;;;;;;;;;;;;;;;5067925;28;19924;-63
2023/12/01 07:14:11;;;;;;;;;;;;;;;;;;5060410;28;19940;-63
2023/12/01 07:16:37;;;;;;;;;;;;;;;;;;5063827;28;20247;-63
2023/12/01 07:19:03;;;;;;;;;;;;;;;;;;5071324;28;19996;-63
2023/12/01 07:21:30;;;;;;;;;;;;;;;;;;5059604;28;19925;-64
2023/12/01 07:23:56;;;;;;;;;;;;;;;;;;5069195;28;20355;-63
2023/12/01 07:26:21;;;;;;;;;;;;;;;;;;5067133;28;20015;-64
2023/12/01 07:28:47;;;;;;;;;;;;;;;;;;5073995;28;19964;-64
2023/12/01 07:31:13;;;;;;;;;;;;;;;;;;5066861;28;19924;-64
2023/12/01 07:33:39;;;;;;;;;;;;;;;;;;5073837;28;19920;-64
2023/12/01 07:36:05;;;;;;;;;;;;;;;;;;5075824;28;20373;-64
2023/12/01 07:38:31;;;;;;;;;;;;;;;;;;5072475;28;19924;-63
2023/12/01 07:40:58;;;;;;;;;;;;;;;;;;5073747;28;19924;-63
2023/12/01 07:43:24;;;;;;;;;;;;;;;;;;5061025;28;19952;-64
2023/12/01 07:45:50;;;;;;;;;;;;;;;;;;5068751;28;20386;-63
2023/12/01 07:48:15;;;;;;;;;;;;;;;;;;5072774;28;19924;-63
2023/12/01 07:50:41;;;;;;;;;;;;;;;;;;5073816;28;19920;-63
2023/12/01 07:53:07;;;;;;;;;;;;;;;;;;5075813;28;19920;-63
2023/12/01 07:55:33;;;;;;;;;;;;;;;;;;5071701;28;19924;-64
2023/12/01 07:57:59;;;;;;;;;;;;;;;;;;5069710;28;19927;-63
2023/12/01 08:00:25;;;;;;;;;;;;;;;;;;5066665;28;19963;-63
2023/12/01 08:02:51;;;;;;;;;;;;;;;;;;5070766;28;19950;-64
2023/12/01 08:05:17;;;;;;;;;;;;;;;;;;5074752;28;20316;-63
2023/12/01 08:07:43;;;;;;;;;;;;;;;;;;5074002;28;19928;-64
2023/12/01 08:10:09;;;;;;;;;;;;;;;;;;5071160;28;19920;-64
2023/12/01 08:12:35;;;;;;;;;;;;;;;;;;5084476;28;19931;-64
2023/12/01 08:15:01;;;;;;;;;;;;;;;;;;5074285;28;19936;-64
2023/12/01 08:17:27;;;;;;;;;;;;;;;;;;5070257;28;19924;-64
2023/12/01 08:19:53;;;;;;;;;;;;;;;;;;5073149;28;20536;-63
2023/12/01 08:22:19;;;;;;;;;;;;;;;;;;5070177;28;19952;-64
2023/12/01 08:24:46;;;;;;;;;;;;;;;;;;5068295;28;19982;-63
2023/12/01 08:27:12;;;;;;;;;;;;;;;;;;5053497;28;20536;-64
2023/12/01 08:29:38;;;;;;;;;;;;;;;;;;5042250;28;19951;-64
2023/12/01 08:32:04;;;;;;;;;;;;;;;;;;5044055;28;19929;-64
2023/12/01 08:34:30;;;;;;;;;;;;;;;;;;5044049;28;19928;-65
2023/12/01 08:36:55;;;;;;;;;;;;;;;;;;5052383;28;20857;-64
2023/12/01 08:39:21;;;;;;;;;;;;;;;;;;5056953;28;19924;-64
2023/12/01 08:41:51;;;;;;;;;;;;;;;;;;5048605;28;20483;-64
2023/12/01 08:44:17;;;;;;;;;;;;;;;;;;5047349;28;19932;-65
2023/12/01 08:46:45;;;;;;;;;;;;;;;;;;5051355;28;20518;-65
2023/12/01 08:49:11;;;;;;;;;;;;;;;;;;5068610;28;19924;-64
2023/12/01 08:51:36;;;;;;;;;;;;;;;;;;5067445;28;19924;-65
2023/12/01 08:54:02;;;;;;;;;;;;;;;;;;5070659;28;19966;-64
2023/12/01 08:56:28;;;;;;;;;;;;;;;;;;5070258;28;20471;-64
2023/12/01 08:58:54;;;;;;;;;;;;;;;;;;5072346;28;19929;-64
2023/12/01 09:01:20;;;;;;;;;;;;;;;;;;5065913;28;19924;-65
2023/12/01 09:03:46;;;;;;;;;;;;;;;;;;5066176;28;19925;-65
2023/12/01 09:06:12;;;;;;;;;;;;;;;;;;5072047;28;19921;-65
2023/12/01 09:08:38;;;;;;;;;;;;;;;;;;5073828;28;19924;-65
2023/12/01 09:11:04;;;;;;;;;;;;;;;;;;5071030;28;20608;-65
2023/12/01 09:13:32;;;;;;;;;;;;;;;;;;5068976;28;19925;-63
2023/12/01 09:15:58;;;;;;;;;;;;;;;;;;5070947;28;19920;-63
2023/12/01 09:18:24;;;;;;;;;;;;;;;;;;5060490;28;19947;-64
2023/12/01 09:20:50;;;;;;;;;;;;;;;;;;5070018;28;19928;-64
2023/12/01 09:23:15;;;;;;;;;;;;;;;;;;5072765;28;19936;-64
2023/12/01 09:25:41;;;;;;;;;;;;;;;;;;5063679;28;22181;-64
2023/12/01 09:28:08;;;;;;;;;;;;;;;;;;5064165;28;20010;-64
2023/12/01 09:30:34;;;;;;;;;;;;;;;;;;5070040;28;19925;-63
2023/12/01 09:33:00;;;;;;;;;;;;;;;;;;5065503;28;19921;-64
2023/12/01 09:35:26;;;;;;;;;;;;;;;;;;5068851;28;19927;-64
2023/12/01 09:37:52;;;;;;;;;;;;;;;;;;5056709;28;19921;-64
2023/12/01 09:40:18;;;;;;;;;;;;;;;;;;5066745;28;19970;-64
2023/12/01 09:42:44;;;;;;;;;;;;;;;;;;5067649;28;20001;-65
2023/12/01 09:45:09;;;;;;;;;;;;;;;;;;5066696;28;19929;-64
2023/12/01 09:47:35;;;;;;;;;;;;;;;;;;5069578;28;19920;-64
2023/12/01 09:50:01;;;;;;;;;;;;;;;;;;5070768;28;19924;-65
2023/12/01 09:52:27;;;;;;;;;;;;;;;;;;5069927;28;19920;-65
2023/12/01 09:54:53;;;;;;;;;;;;;;;;;;5074983;28;19986;-65
2023/12/01 09:57:19;;;;;;;;;;;;;;;;;;5068502;28;19986;-64
2023/12/01 09:59:45;;;;;;;;;;;;;;;;;;5070580;28;19954;-64
2023/12/01 10:02:11;;;;;;;;;;;;;;;;;;5065909;28;19921;-66
2023/12/01 10:04:37;;;;;;;;;;;;;;;;;;5071259;28;20289;-65
2023/12/01 10:07:03;;;;;;;;;;;;;;;;;;5066945;28;19931;-65
2023/12/01 10:09:36;;;;;;;;;;;;;;;;;;5070457;28;20019;-66
2023/12/01 10:12:02;;;;;;;;;;;;;;;;;;5069164;28;19924;-65
2023/12/01 10:14:27;;;;;;;;;;;;;;;;;;5071281;28;20633;-66
2023/12/01 10:16:53;;;;;;;;;;;;;;;;;;5068822;28;19931;-65
2023/12/01 10:19:19;;;;;;;;;;;;;;;;;;5047310;28;19950;-66
2023/12/01 10:21:45;;;;;;;;;;;;;;;;;;5068445;28;19971;-64
2023/12/01 10:24:11;;;;;;;;;;;;;;;;;;5059629;28;20035;-63
2023/12/01 10:26:37;;;;;;;;;;;;;;;;;;5094492;22;19942;-68
2023/12/01 10:29:03;;;;;;;;;;;;;;;;;;5069730;28;19932;-69
2023/12/01 10:31:29;;;;;;;;;;;;;;;;;;5086538;28;19989;-69
2023/12/01 10:33:55;;;;;;;;;;;;;;;;;;5085850;28;19969;-69
2023/12/01 10:36:22;;;;;;;;;;;;;;;;;;5072238;28;20444;-69
2023/12/01 10:38:48;;;;;;;;;;;;;;;;;;5086675;28;19924;-69
2023/12/01 10:41:14;;;;;;;;;;;;;;;;;;5079234;28;20373;-69
2023/12/01 10:43:40;;;;;;;;;;;;;;;;;;5088458;28;19920;-70
2023/12/01 10:46:06;;;;;;;;;;;;;;;;;;5086850;28;19920;-70
2023/12/01 10:48:32;;;;;;;;;;;;;;;;;;5087405;28;19927;-69
2023/12/01 10:50:58;;;;;;;;;;;;;;;;;;5089078;28;19931;-70
2023/12/01 10:53:27;;;;;;;;;;;;;;;;;;5087328;28;20335;-69
2023/12/01 10:55:53;;;;;;;;;;;;;;;;;;5082811;28;19924;-69
2023/12/01 10:58:20;;;;;;;;;;;;;;;;;;5090448;28;19924;-69
2023/12/01 11:00:46;;;;;;;;;;;;;;;;;;5072599;28;19930;-69
2023/12/01 11:03:13;;;;;;;;;;;;;;;;;;5089435;28;19924;-68
2023/12/01 11:05:41;;;;;;;;;;;;;;;;;;5091739;28;19927;-68
2023/12/01 11:08:07;;;;;;;;;;;;;;;;;;5091844;28;20305;-68
2023/12/01 11:10:33;;;;;;;;;;;;;;;;;;5087989;28;19924;-68
2023/12/01 11:12:59;;;;;;;;;;;;;;;;;;5091149;28;19959;-68
2023/12/01 11:15:25;;;;;;;;;;;;;;;;;;5088020;28;19956;-68
2023/12/01 11:17:51;;;;;;;;;;;;;;;;;;5091794;28;19958;-68
2023/12/01 11:20:17;;;;;;;;;;;;;;;;;;5093028;28;20685;-69
2023/12/01 11:22:43;;;;;;;;;;;;;;;;;;5085666;28;20035;-68
2023/12/01 11:25:08;;;;;;;;;;;;;;;;;;5086964;28;20006;-68
2023/12/01 11:27:34;;;;;;;;;;;;;;;;;;5071648;28;20016;-68
2023/12/01 11:30:06;;;;;;;;;;;;;;;;;;5090959;28;19959;-68
2023/12/01 11:32:33;;;;;;;;;;;;;;;;;;5086891;28;19928;-68
2023/12/01 11:34:59;;;;;;;;;;;;;;;;;;5091795;28;19982;-67
2023/12/01 11:37:24;;;;;;;;;;;;;;;;;;5090049;28;20570;-68
2023/12/01 11:39:50;;;;;;;;;;;;;;;;;;5090401;28;20019;-68
2023/12/01 11:42:16;;;;;;;;;;;;;;;;;;5088499;28;20015;-68
2023/12/01 11:44:43;;;;;;;;;;;;;;;;;;5093520;28;19999;-68
2023/12/01 11:47:11;;;;;;;;;;;;;;;;;;5089442;28;19924;-68
2023/12/01 11:49:41;;;;;;;;;;;;;;;;;;5086004;28;19931;-68
2023/12/01 11:52:07;;;;;;;;;;;;;;;;;;5090127;28;19920;-68
2023/12/01 11:54:33;;;;;;;;;;;;;;;;;;5087448;28;19931;-68
2023/12/01 11:56:59;;;;;;;;;;;;;;;;;;5087706;28;19971;-68
2023/12/01 11:59:24;;;;;;;;;;;;;;;;;;5081576;28;19956;-69
2023/12/01 12:01:51;;;;;;;;;;;;;;;;;;5070143;28;19928;-69
2023/12/01 12:04:17;;;;;;;;;;;;;;;;;;5081632;28;19924;-69
2023/12/01 12:06:42;;;;;;;;;;;;;;;;;;5063803;28;19980;-68
2023/12/01 12:09:08;;;;;;;;;;;;;;;;;;5081324;28;20340;-69
2023/12/01 12:11:35;;;;;;;;;;;;;;;;;;5090194;28;19920;-69
2023/12/01 12:14:07;;;;;;;;;;;;;;;;;;5092463;28;19955;-69
2023/12/01 12:16:33;;;;;;;;;;;;;;;;;;5082634;28;19936;-68
2023/12/01 12:18:59;;;;;;;;;;;;;;;;;;5089728;28;19920;-69
2023/12/01 12:21:25;;;;;;;;;;;;;;;;;;5072631;28;19931;-68
2023/12/01 12:23:51;;;;;;;;;;;;;;;;;;5086878;28;19928;-67
2023/12/01 12:26:17;;;;;;;;;;;;;;;;;;5088491;28;19932;-67
2023/12/01 12:28:43;;;;;;;;;;;;;;;;;;5094438;28;19924;-67
2023/12/01 12:31:09;;;;;;;;;;;;;;;;;;5086806;28;20418;-67
2023/12/01 12:33:35;;;;;;;;;;;;;;;;;;5094112;28;19920;-67
2023/12/01 12:36:01;;;;;;;;;;;;;;;;;;5095536;28;19920;-67
2023/12/01 12:38:27;;;;;;;;;;;;;;;;;;5102758;28;19930;-67
2023/12/01 12:40:54;;;;;;;;;;;;;;;;;;5099742;28;20517;-67
2023/12/01 12:43:20;;;;;;;;;;;;;;;;;;5094186;28;19920;-67
2023/12/01 12:45:47;;;;;;;;;;;;;;;;;;5101492;28;19946;-67
2023/12/01 12:48:13;;;;;;;;;;;;;;;;;;5066788;28;19986;-67
2023/12/01 12:50:39;;;;;;;;;;;;;;;;;;5064955;28;19927;-67
2023/12/01 12:53:05;;;;;;;;;;;;;;;;;;5092117;28;20012;-67
2023/12/01 12:55:32;;;;;;;;;;;;;;;;;;5092060;28;20453;-67
2023/12/01 12:57:58;;;;;;;;;;;;;;;;;;5074652;28;19999;-67
2023/12/01 13:00:24;;;;;;;;;;;;;;;;;;5093237;28;20007;-67
2023/12/01 13:02:50;;;;;;;;;;;;;;;;;;5078212;28;19924;-67
2023/12/01 13:05:16;;;;;;;;;;;;;;;;;;5075484;28;20033;-67
2023/12/01 13:07:42;;;;;;;;;;;;;;;;;;5079375;28;19931;-67
2023/12/01 13:10:09;;;;;;;;;;;;;;;;;;5081605;28;20303;-67
2023/12/01 13:12:35;;;;;;;;;;;;;;;;;;5093110;28;20011;-67
2023/12/01 13:15:02;;;;;;;;;;;;;;;;;;5091753;28;20003;-67
2023/12/01 13:17:28;;;;;;;;;;;;;;;;;;5089151;28;19924;-67
2023/12/01 13:19:54;;;;;;;;;;;;;;;;;;5090511;28;19965;-67
2023/12/01 13:22:20;;;;;;;;;;;;;;;;;;5091170;28;19931;-67
2023/12/01 13:24:46;;;;;;;;;;;;;;;;;;5091131;28;19942;-67
2023/12/01 13:27:12;;;;;;;;;;;;;;;;;;5091234;28;19970;-67
2023/12/01 13:29:38;;;;;;;;;;;;;;;;;;5092793;28;19963;-67
2023/12/01 13:32:04;;;;;;;;;;;;;;;;;;5087906;28;19965;-67
2023/12/01 13:34:30;;;;;;;;;;;;;;;;;;5089647;28;19979;-67
2023/12/01 13:36:56;;;;;;;;;;;;;;;;;;5091486;28;19955;-67
2023/12/01 13:39:22;;;;;;;;;;;;;;;;;;5086864;28;19963;-67
2023/12/01 13:41:48;;;;;;;;;;;;;;;;;;5083451;28;20025;-67
2023/12/01 13:44:14;;;;;;;;;;;;;;;;;;5086609;28;19981;-67
2023/12/01 13:46:40;;;;;;;;;;;;;;;;;;5085160;28;19936;-67
2023/12/01 13:49:06;;;;;;;;;;;;;;;;;;5087109;28;20369;-67
2023/12/01 13:51:32;;;;;;;;;;;;;;;;;;5085804;28;19940;-67
2023/12/01 13:53:58;;;;;;;;;;;;;;;;;;5079291;28;19939;-67
2023/12/01 13:56:24;;;;;;;;;;;;;;;;;;5080438;28;19920;-67
2023/12/01 13:58:50;;;;;;;;;;;;;;;;;;5087700;28;20335;-67
2023/12/01 14:01:16;;;;;;;;;;;;;;;;;;5085296;28;19929;-67
2023/12/01 14:03:42;;;;;;;;;;;;;;;;;;5086077;28;19920;-67
2023/12/01 14:06:08;;;;;;;;;;;;;;;;;;5069139;28;20001;-67
2023/12/01 14:08:34;;;;;;;;;;;;;;;;;;5066589;28;19969;-68
2023/12/01 14:11:00;;;;;;;;;;;;;;;;;;5082788;28;20363;-68
2023/12/01 14:13:26;;;;;;;;;;;;;;;;;;5085994;28;20041;-68
2023/12/01 14:15:52;;;;;;;;;;;;;;;;;;5070286;28;19959;-68
2023/12/01 14:18:18;;;;;;;;;;;;;;;;;;5084504;28;19935;-68
2023/12/01 14:20:44;;;;;;;;;;;;;;;;;;5083263;28;19924;-68
2023/12/01 14:23:09;;;;;;;;;;;;;;;;;;5081864;28;19932;-68
2023/12/01 14:25:35;;;;;;;;;;;;;;;;;;5085111;28;19940;-69
2023/12/01 14:28:01;;;;;;;;;;;;;;;;;;5070179;28;20316;-69
2023/12/01 14:30:27;;;;;;;;;;;;;;;;;;5086730;28;19924;-68
2023/12/01 14:32:55;;;;;;;;;;;;;;;;;;5082966;28;19966;-68
2023/12/01 14:35:20;;;;;;;;;;;;;;;;;;5088197;28;19923;-68
2023/12/01 14:37:47;;;;;;;;;;;;;;;;;;5080872;28;19927;-68
2023/12/01 14:40:13;;;;;;;;;;;;;;;;;;5088157;28;19928;-68
2023/12/01 14:42:39;;;;;;;;;;;;;;;;;;5088587;28;19935;-68
2023/12/01 14:45:06;;;;;;;;;;;;;;;;;;5083651;28;19927;-69
2023/12/01 14:47:32;;;;;;;;;;;;;;;;;;5056722;28;19936;-68
2023/12/01 14:49:58;;;;;;;;;;;;;;;;;;5072778;28;19992;-68
2023/12/01 14:52:23;;;;;;;;;;;;;;;;;;5087364;28;20614;-68
2023/12/01 14:54:49;;;;;;;;;;;;;;;;;;5087785;28;19920;-68
2023/12/01 14:57:16;;;;;;;;;;;;;;;;;;5084195;28;19972;-69
2023/12/01 14:59:42;;;;;;;;;;;;;;;;;;5069650;28;19948;-69
2023/12/01 15:02:08;;;;;;;;;;;;;;;;;;5086295;28;19924;-68
2023/12/01 15:04:34;;;;;;;;;;;;;;;;;;5085142;28;19928;-68
2023/12/01 15:07:00;;;;;;;;;;;;;;;;;;5090477;28;19931;-69
2023/12/01 15:09:26;;;;;;;;;;;;;;;;;;5065093;28;20334;-69
2023/12/01 15:11:52;;;;;;;;;;;;;;;;;;5074965;28;19970;-69
2023/12/01 15:14:18;;;;;;;;;;;;;;;;;;5076274;28;20373;-68
2023/12/01 15:16:44;;;;;;;;;;;;;;;;;;5083455;28;19927;-69
2023/12/01 15:19:11;;;;;;;;;;;;;;;;;;5065881;28;20381;-68
2023/12/01 15:21:37;;;;;;;;;;;;;;;;;;5088267;28;20052;-68
2023/12/01 15:24:03;;;;;;;;;;;;;;;;;;5085038;28;19962;-69
2023/12/01 15:26:29;;;;;;;;;;;;;;;;;;5083502;28;19924;-68
2023/12/01 15:28:55;;;;;;;;;;;;;;;;;;5087427;28;19931;-69
2023/12/01 15:31:21;;;;;;;;;;;;;;;;;;5076565;28;19943;-69
2023/12/01 15:33:47;;;;;;;;;;;;;;;;;;5080802;28;19928;-69
2023/12/01 15:36:13;;;;;;;;;;;;;;;;;;5080781;28;20023;-68
2023/12/01 15:38:39;;;;;;;;;;;;;;;;;;5087212;28;19924;-68
2023/12/01 15:41:05;;;;;;;;;;;;;;;;;;5087520;28;20011;-68
2023/12/01 15:43:30;;;;;;;;;;;;;;;;;;5084613;28;19920;-68
2023/12/01 15:45:58;;;;;;;;;;;;;;;;;;5082944;28;20578;-68
2023/12/01 15:48:23;;;;;;;;;;;;;;;;;;5079458;28;20011;-68
2023/12/01 15:50:49;;;;;;;;;;;;;;;;;;5088358;28;20006;-68
2023/12/01 15:53:15;;;;;;;;;;;;;;;;;;5075247;28;20310;-68
2023/12/01 15:55:41;;;;;;;;;;;;;;;;;;5084261;28;20385;-68
2023/12/01 15:58:07;;;;;;;;;;;;;;;;;;5071812;28;19928;-69
2023/12/01 16:00:33;;;;;;;;;;;;;;;;;;5082271;28;19924;-69
2023/12/01 16:02:59;;;;;;;;;;;;;;;;;;5108567;27;19928;-69
2023/12/01 16:05:25;;;;;;;;;;;;;;;;;;5080166;28;19927;-68
2023/12/01 16:07:51;;;;;;;;;;;;;;;;;;5091231;28;19927;-69
2023/12/01 16:10:17;;;;;;;;;;;;;;;;;;5079151;28;20595;-68
2023/12/01 16:12:42;;;;;;;;;;;;;;;;;;5089249;28;19928;-68
2023/12/01 16:15:09;;;;;;;;;;;;;;;;;;5088544;28;19920;-68
2023/12/01 16:17:35;;;;;;;;;;;;;;;;;;5087646;28;19932;-68
2023/12/01 16:20:01;;;;;;;;;;;;;;;;;;5086948;28;19920;-68
2023/12/01 16:22:27;;;;;;;;;;;;;;;;;;5071823;28;19928;-68
2023/12/01 16:24:53;;;;;;;;;;;;;;;;;;5097385;28;19930;-68
2023/12/01 16:27:18;;;;;;;;;;;;;;;;;;5094139;28;20051;-68
2023/12/01 16:29:44;;;;;;;;;;;;;;;;;;5098639;28;20322;-68
2023/12/01 16:32:10;;;;;;;;;;;;;;;;;;5085462;28;19924;-68
2023/12/01 16:34:36;;;;;;;;;;;;;;;;;;5095301;28;19919;-68
2023/12/01 16:37:02;;;;;;;;;;;;;;;;;;5087135;28;19948;-68